Time;durP1;ratioP1;P1;durP2;ratioP2;P2;SDS_P1;SDS_P2;PMS_P1;PMS_P2;Temp;Humidity;BMP_temperature;BMP_pressure;BME280_temperature;BME280_humidity;BME280_pressure;Samples;Min_cycle;Max_cycle;Signal;HPM_P1;HPM_P2
2022/03/04 00:01:02;;;;;;;31.90;4.32;;;;;;;;;;5091523;28;20100;-86
2022/03/04 00:03:29;;;;;;;36.47;5.15;;;;;;;;;;5091004;28;20482;-86
2022/03/04 00:05:55;;;;;;;28.65;4.43;;;;;;;;;;5091130;28;20043;-87
2022/03/04 00:08:21;;;;;;;26.35;4.43;;;;;;;;;;5090811;28;20051;-86
2022/03/04 00:10:47;;;;;;;41.83;5.18;;;;;;;;;;5090854;28;20024;-87
2022/03/04 00:13:14;;;;;;;40.58;4.45;;;;;;;;;;5091740;28;20097;-86
2022/03/04 00:15:40;;;;;;;54.25;5.55;;;;;;;;;;5090776;28;20024;-86
2022/03/04 00:18:06;;;;;;;42.97;5.13;;;;;;;;;;5090723;28;20232;-86
2022/03/04 00:20:32;;;;;;;37.65;4.25;;;;;;;;;;5089668;28;20039;-85
2022/03/04 00:22:58;;;;;;;32.90;4.40;;;;;;;;;;5090655;28;20028;-86
2022/03/04 00:25:24;;;;;;;30.88;4.97;;;;;;;;;;5090826;28;20036;-86
2022/03/04 00:27:50;;;;;;;34.33;4.20;;;;;;;;;;5089245;28;20020;-86
2022/03/04 00:30:16;;;;;;;31.45;4.78;;;;;;;;;;5091747;28;20020;-85
2022/03/04 00:32:42;;;;;;;35.38;5.38;;;;;;;;;;5091092;28;20044;-86
2022/03/04 00:35:09;;;;;;;37.60;5.20;;;;;;;;;;5090761;28;20032;-86
2022/03/04 00:37:35;;;;;;;36.67;5.15;;;;;;;;;;5090625;28;20020;-86
2022/03/04 00:40:01;;;;;;;31.35;4.70;;;;;;;;;;5089275;28;20111;-85
2022/03/04 00:42:30;;;;;;;35.90;5.30;;;;;;;;;;5089260;28;20035;-86
2022/03/04 00:44:56;;;;;;;37.88;4.63;;;;;;;;;;5090475;28;20027;-86
2022/03/04 00:47:22;;;;;;;36.50;4.57;;;;;;;;;;5089885;28;20137;-86
2022/03/04 00:49:48;;;;;;;38.50;4.60;;;;;;;;;;5089818;28;20024;-87
2022/03/04 00:52:14;;;;;;;33.47;5.65;;;;;;;;;;5091004;28;20504;-86
2022/03/04 00:54:40;;;;;;;31.05;5.47;;;;;;;;;;5089904;28;20450;-86
2022/03/04 00:57:06;;;;;;;29.50;4.72;;;;;;;;;;5089328;28;20032;-85
2022/03/04 00:59:32;;;;;;;33.05;5.00;;;;;;;;;;5090249;28;20020;-87
2022/03/04 01:01:59;;;;;;;35.17;5.20;;;;;;;;;;5088549;28;20043;-85
2022/03/04 01:04:25;;;;;;;39.30;4.90;;;;;;;;;;5088794;28;20051;-86
2022/03/04 01:06:51;;;;;;;46.63;5.22;;;;;;;;;;5090089;28;20111;-86
2022/03/04 01:09:17;;;;;;;33.90;5.25;;;;;;;;;;5090359;28;20020;-87
2022/03/04 01:11:43;;;;;;;44.38;5.25;;;;;;;;;;5088644;28;20390;-86
2022/03/04 01:14:09;;;;;;;35.63;4.68;;;;;;;;;;5090009;28;20367;-86
2022/03/04 01:16:36;;;;;;;34.40;4.15;;;;;;;;;;5089422;28;20032;-87
2022/03/04 01:19:02;;;;;;;34.58;4.60;;;;;;;;;;5089749;28;20020;-86
2022/03/04 01:21:28;;;;;;;34.53;5.10;;;;;;;;;;5089969;28;20587;-87
2022/03/04 01:23:55;;;;;;;36.45;5.05;;;;;;;;;;5089708;28;20024;-86
2022/03/04 01:26:21;;;;;;;33.75;4.53;;;;;;;;;;5089896;28;20487;-85
2022/03/04 01:28:47;;;;;;;30.00;4.78;;;;;;;;;;5090502;28;20016;-86
2022/03/04 01:31:15;;;;;;;35.78;4.63;;;;;;;;;;5089080;28;20020;-86
2022/03/04 01:33:41;;;;;;;38.00;5.00;;;;;;;;;;5089214;28;20570;-86
2022/03/04 01:36:07;;;;;;;30.25;5.57;;;;;;;;;;5088906;28;20028;-87
2022/03/04 01:38:33;;;;;;;49.05;6.25;;;;;;;;;;5088265;28;20024;-86
2022/03/04 01:40:59;;;;;;;32.22;4.30;;;;;;;;;;5089491;28;20020;-85
2022/03/04 01:43:26;;;;;;;25.10;4.95;;;;;;;;;;5089268;28;20078;-86
2022/03/04 01:45:52;;;;;;;43.05;4.88;;;;;;;;;;5087640;28;20032;-85
2022/03/04 01:48:22;;;;;;;31.73;4.63;;;;;;;;;;5090084;28;20134;-87
2022/03/04 01:50:52;;;;;;;31.45;4.47;;;;;;;;;;5090072;28;20111;-86
2022/03/04 01:53:18;;;;;;;30.60;3.75;;;;;;;;;;5090037;28;20047;-85
2022/03/04 01:55:45;;;;;;;39.33;4.68;;;;;;;;;;5088941;28;20020;-86
2022/03/04 01:58:11;;;;;;;32.08;4.95;;;;;;;;;;5088834;28;20517;-85
2022/03/04 02:00:37;;;;;;;40.45;6.72;;;;;;;;;;5088762;28;20059;-86
2022/03/04 02:03:09;;;;;;;47.80;5.03;;;;;;;;;;5089187;28;20552;-85
2022/03/04 02:05:35;;;;;;;29.23;4.28;;;;;;;;;;5089018;28;20039;-86
2022/03/04 02:08:01;;;;;;;27.50;4.20;;;;;;;;;;5088194;28;20024;-87
2022/03/04 02:10:27;;;;;;;30.98;5.15;;;;;;;;;;5087098;28;20028;-86
2022/03/04 02:12:54;;;;;;;72.60;5.00;;;;;;;;;;5088989;28;20027;-86
2022/03/04 02:15:20;;;;;;;33.90;4.93;;;;;;;;;;5089752;28;20495;-86
2022/03/04 02:17:46;;;;;;;34.15;4.75;;;;;;;;;;5088187;28;20024;-85
2022/03/04 02:20:12;;;;;;;27.58;3.90;;;;;;;;;;5089004;28;20026;-85
2022/03/04 02:22:38;;;;;;;34.28;4.47;;;;;;;;;;5082316;28;20140;-86
2022/03/04 02:25:08;;;;;;;26.67;3.75;;;;;;;;;;5089006;28;20024;-86
2022/03/04 02:27:34;;;;;;;33.15;4.30;;;;;;;;;;5088959;28;20078;-86
2022/03/04 02:30:00;;;;;;;33.58;5.43;;;;;;;;;;5088300;28;20024;-86
2022/03/04 02:32:26;;;;;;;28.83;4.00;;;;;;;;;;5088098;28;20108;-86
2022/03/04 02:34:52;;;;;;;26.42;5.18;;;;;;;;;;5089344;28;20024;-86
2022/03/04 02:37:18;;;;;;;37.80;4.68;;;;;;;;;;5088370;28;20054;-86
2022/03/04 02:39:44;;;;;;;28.65;4.05;;;;;;;;;;5088554;28;20271;-86
2022/03/04 02:42:11;;;;;;;31.13;4.95;;;;;;;;;;5088676;28;20480;-86
2022/03/04 02:44:37;;;;;;;29.33;3.55;;;;;;;;;;5088665;28;20039;-86
2022/03/04 02:47:04;;;;;;;44.20;4.50;;;;;;;;;;5088282;28;20024;-86
2022/03/04 02:49:30;;;;;;;26.23;3.65;;;;;;;;;;5088669;28;20032;-85
2022/03/04 02:51:56;;;;;;;23.30;3.50;;;;;;;;;;5088288;28;20020;-86
2022/03/04 02:54:22;;;;;;;33.60;4.18;;;;;;;;;;5089466;28;20032;-86
2022/03/04 02:56:48;;;;;;;19.23;3.65;;;;;;;;;;5088004;28;20426;-86
2022/03/04 02:59:14;;;;;;;30.45;4.53;;;;;;;;;;5087813;28;20028;-85
2022/03/04 03:01:41;;;;;;;30.52;3.15;;;;;;;;;;5088029;28;20028;-86
2022/03/04 03:04:07;;;;;;;32.22;4.75;;;;;;;;;;5088509;28;20486;-85
2022/03/04 03:06:33;;;;;;;29.63;3.65;;;;;;;;;;5088457;28;20028;-87
2022/03/04 03:08:59;;;;;;;27.58;4.10;;;;;;;;;;5088331;28;20027;-86
2022/03/04 03:11:25;;;;;;;31.88;4.47;;;;;;;;;;5089459;28;20507;-86
2022/03/04 03:13:51;;;;;;;30.23;3.55;;;;;;;;;;5089330;28;20020;-86
2022/03/04 03:16:18;;;;;;;32.08;4.70;;;;;;;;;;5088065;28;20096;-86
2022/03/04 03:18:44;;;;;;;30.52;4.65;;;;;;;;;;5088697;28;20082;-86
2022/03/04 03:21:10;;;;;;;37.08;4.50;;;;;;;;;;5092390;28;20028;-85
2022/03/04 03:23:36;;;;;;;34.75;5.35;;;;;;;;;;5090934;28;20056;-86
2022/03/04 03:26:02;;;;;;;30.48;4.22;;;;;;;;;;5091726;28;20036;-85
2022/03/04 03:28:28;;;;;;;22.65;4.78;;;;;;;;;;5091807;28;20093;-87
2022/03/04 03:30:54;;;;;;;36.25;6.95;;;;;;;;;;5092730;28;20035;-86
2022/03/04 03:33:20;;;;;;;33.60;5.70;;;;;;;;;;5091745;28;20023;-86
2022/03/04 03:35:47;;;;;;;49.45;6.70;;;;;;;;;;5092001;28;20032;-87
2022/03/04 03:38:14;;;;;;;43.67;5.57;;;;;;;;;;5091791;28;20024;-85
2022/03/04 03:40:40;;;;;;;37.35;4.63;;;;;;;;;;5091890;28;20028;-86
2022/03/04 03:43:06;;;;;;;23.42;4.47;;;;;;;;;;5091781;28;20031;-86
2022/03/04 03:45:32;;;;;;;37.42;4.70;;;;;;;;;;5090866;28;20085;-86
2022/03/04 03:47:59;;;;;;;26.48;3.90;;;;;;;;;;5091658;28;20040;-86
2022/03/04 03:50:25;;;;;;;26.83;3.53;;;;;;;;;;5092244;28;20047;-86
2022/03/04 03:52:51;;;;;;;20.58;3.55;;;;;;;;;;5091296;28;20518;-86
2022/03/04 03:55:17;;;;;;;25.55;4.70;;;;;;;;;;5090747;28;20495;-83
2022/03/04 03:57:43;;;;;;;27.63;5.15;;;;;;;;;;5090689;28;20032;-87
2022/03/04 04:00:10;;;;;;;21.40;4.40;;;;;;;;;;5091042;28;20036;-87
2022/03/04 04:02:36;;;;;;;22.63;4.28;;;;;;;;;;5091320;28;20045;-87
2022/03/04 04:05:03;;;;;;;24.23;3.70;;;;;;;;;;5091083;28;20077;-86
2022/03/04 04:07:29;;;;;;;25.23;3.55;;;;;;;;;;5091263;28;20500;-86
2022/03/04 04:09:55;;;;;;;23.30;3.75;;;;;;;;;;5092075;28;20434;-85
2022/03/04 04:12:22;;;;;;;26.23;3.45;;;;;;;;;;5091099;28;20035;-85
2022/03/04 04:14:48;;;;;;;25.13;3.95;;;;;;;;;;5107921;28;20502;-85
2022/03/04 04:17:14;;;;;;;24.63;3.88;;;;;;;;;;5109788;28;20559;-85
2022/03/04 04:19:40;;;;;;;35.63;4.13;;;;;;;;;;5091096;28;20027;-86
2022/03/04 04:22:06;;;;;;;25.92;4.72;;;;;;;;;;5090584;28;20016;-85
2022/03/04 04:24:32;;;;;;;37.60;4.72;;;;;;;;;;5090863;28;20017;-85
2022/03/04 04:26:58;;;;;;;23.17;4.20;;;;;;;;;;5090700;28;20507;-86
2022/03/04 04:29:24;;;;;;;24.92;4.15;;;;;;;;;;5091630;28;20020;-87
2022/03/04 04:31:50;;;;;;;30.65;5.13;;;;;;;;;;5092950;28;20473;-87
2022/03/04 04:34:16;;;;;;;30.92;3.90;;;;;;;;;;5096636;28;20019;-88
2022/03/04 04:36:42;;;;;;;25.70;4.88;;;;;;;;;;5090997;28;20031;-87
2022/03/04 04:39:09;;;;;;;37.55;4.85;;;;;;;;;;5091939;28;20472;-87
2022/03/04 04:41:35;;;;;;;33.78;5.93;;;;;;;;;;5090585;28;20027;-85
2022/03/04 04:44:01;;;;;;;30.95;3.92;;;;;;;;;;5090710;28;20023;-85
2022/03/04 04:46:27;;;;;;;28.48;3.70;;;;;;;;;;5091172;28;20071;-87
2022/03/04 04:48:53;;;;;;;22.38;4.10;;;;;;;;;;5090380;28;20091;-85
2022/03/04 04:51:19;;;;;;;22.42;4.03;;;;;;;;;;5090188;28;20034;-86
2022/03/04 04:53:45;;;;;;;28.17;4.10;;;;;;;;;;5090233;28;20020;-86
2022/03/04 04:56:11;;;;;;;28.70;4.13;;;;;;;;;;5090265;28;20028;-85
2022/03/04 04:58:37;;;;;;;22.92;4.18;;;;;;;;;;5090352;28;20031;-84
2022/03/04 05:01:03;;;;;;;20.65;3.63;;;;;;;;;;5090482;28;20472;-85
2022/03/04 05:03:30;;;;;;;28.75;4.65;;;;;;;;;;5091148;28;20391;-86
2022/03/04 05:05:57;;;;;;;27.27;4.20;;;;;;;;;;5090524;28;20123;-88
2022/03/04 05:08:27;;;;;;;30.55;4.15;;;;;;;;;;5090374;28;20012;-84
2022/03/04 05:10:53;;;;;;;28.23;4.30;;;;;;;;;;5090090;28;20020;-85
2022/03/04 05:13:19;;;;;;;26.55;4.30;;;;;;;;;;5088597;28;20402;-86
2022/03/04 05:15:45;;;;;;;31.35;6.00;;;;;;;;;;5089968;28;20027;-85
2022/03/04 05:18:11;;;;;;;23.50;4.50;;;;;;;;;;5088610;28;20040;-84
2022/03/04 05:20:37;;;;;;;25.98;3.83;;;;;;;;;;5089988;28;20024;-84
2022/03/04 05:23:03;;;;;;;31.75;4.63;;;;;;;;;;5088248;28;20032;-86
2022/03/04 05:25:30;;;;;;;29.35;4.15;;;;;;;;;;5090488;28;20032;-86
2022/03/04 05:27:56;;;;;;;29.75;4.13;;;;;;;;;;5088613;28;20031;-85
2022/03/04 05:30:22;;;;;;;27.10;4.82;;;;;;;;;;5089683;28;20263;-87
2022/03/04 05:32:48;;;;;;;21.73;3.95;;;;;;;;;;5089753;28;20058;-85
2022/03/04 05:35:15;;;;;;;20.85;4.22;;;;;;;;;;5088316;28;20031;-86
2022/03/04 05:37:42;;;;;;;22.70;3.85;;;;;;;;;;5089544;28;20407;-86
2022/03/04 05:40:08;;;;;;;31.42;4.53;;;;;;;;;;5089448;28;20056;-86
2022/03/04 05:42:34;;;;;;;24.67;3.97;;;;;;;;;;5089591;28;20036;-85
2022/03/04 05:45:00;;;;;;;30.95;5.28;;;;;;;;;;5090097;28;20463;-86
2022/03/04 05:47:26;;;;;;;25.33;4.20;;;;;;;;;;5089472;28;20098;-85
2022/03/04 05:49:53;;;;;;;20.50;4.15;;;;;;;;;;5088119;28;20476;-86
2022/03/04 05:52:19;;;;;;;24.02;3.65;;;;;;;;;;5089385;28;20067;-87
2022/03/04 05:54:45;;;;;;;24.38;3.95;;;;;;;;;;5089444;28;20020;-89
2022/03/04 05:57:11;;;;;;;28.10;3.85;;;;;;;;;;5088997;28;20032;-89
2022/03/04 05:59:37;;;;;;;18.17;4.07;;;;;;;;;;5089213;28;20058;-89
2022/03/04 06:02:04;;;;;;;21.55;3.22;;;;;;;;;;5089593;28;20031;-90
2022/03/04 06:04:30;;;;;;;22.77;3.95;;;;;;;;;;5090102;28;20036;-89
2022/03/04 06:06:56;;;;;;;37.88;4.35;;;;;;;;;;5089238;28;20020;-89
2022/03/04 06:09:27;;;;;;;28.60;3.80;;;;;;;;;;5093346;28;20028;-89
2022/03/04 06:11:54;;;;;;;19.52;3.42;;;;;;;;;;5087757;28;20035;-88
2022/03/04 06:14:20;;;;;;;28.38;4.18;;;;;;;;;;5089188;28;20023;-88
2022/03/04 06:16:46;;;;;;;31.23;3.90;;;;;;;;;;5088625;28;20028;-89
2022/03/04 06:19:13;;;;;;;19.95;3.17;;;;;;;;;;5088753;28;20028;-88
2022/03/04 06:21:39;;;;;;;24.25;4.38;;;;;;;;;;5089699;28;20562;-88
2022/03/04 06:24:05;;;;;;;21.33;3.22;;;;;;;;;;5092267;28;20039;-86
2022/03/04 06:26:35;;;;;;;22.65;3.17;;;;;;;;;;5087407;28;20032;-91
2022/03/04 06:29:01;;;;;;;21.38;3.17;;;;;;;;;;5084856;28;20040;-88
2022/03/04 06:31:27;;;;;;;12.90;3.20;;;;;;;;;;5088006;28;20027;-89
2022/03/04 06:33:53;;;;;;;25.15;3.25;;;;;;;;;;5094108;28;20104;-91
2022/03/04 06:36:20;;;;;;;20.73;3.03;;;;;;;;;;5088754;28;20032;-88
2022/03/04 06:38:46;;;;;;;27.38;3.75;;;;;;;;;;5091550;28;20020;-87
2022/03/04 06:41:13;;;;;;;24.52;3.42;;;;;;;;;;5102866;28;20076;-88
2022/03/04 06:43:40;;;;;;;34.15;4.45;;;;;;;;;;5109046;28;20020;-88
2022/03/04 06:46:06;;;;;;;29.45;3.58;;;;;;;;;;5107915;28;20031;-85
2022/03/04 06:48:33;;;;;;;25.55;3.90;;;;;;;;;;5109694;28;20136;-88
2022/03/04 06:50:59;;;;;;;14.15;2.90;;;;;;;;;;5107511;28;20036;-86
2022/03/04 06:53:26;;;;;;;20.65;3.30;;;;;;;;;;5109081;28;20212;-85
2022/03/04 06:55:52;;;;;;;25.08;4.30;;;;;;;;;;5112827;28;20027;-86
2022/03/04 06:58:19;;;;;;;27.88;3.80;;;;;;;;;;5113049;28;20028;-88
2022/03/04 07:00:45;;;;;;;29.70;3.75;;;;;;;;;;5111968;28;20049;-87
2022/03/04 07:03:11;;;;;;;18.73;3.40;;;;;;;;;;5113132;28;20390;-85
2022/03/04 07:05:38;;;;;;;24.98;3.85;;;;;;;;;;5111828;28;20036;-87
2022/03/04 07:08:07;;;;;;;27.63;3.45;;;;;;;;;;5113720;28;20073;-86
2022/03/04 07:10:34;;;;;;;17.85;3.25;;;;;;;;;;5113810;28;20027;-88
2022/03/04 07:13:01;;;;;;;22.73;3.28;;;;;;;;;;5112995;28;20127;-87
2022/03/04 07:15:27;;;;;;;20.13;2.97;;;;;;;;;;5113177;28;20024;-87
2022/03/04 07:17:53;;;;;;;24.30;3.55;;;;;;;;;;5112802;28;20020;-87
2022/03/04 07:20:19;;;;;;;22.20;3.50;;;;;;;;;;5112588;28;20059;-87
2022/03/04 07:22:45;;;;;;;25.38;3.80;;;;;;;;;;5111365;28;20543;-88
2022/03/04 07:25:13;;;;;;;15.48;2.90;;;;;;;;;;5112883;27;20065;-87
2022/03/04 07:27:39;;;;;;;19.38;3.45;;;;;;;;;;5112843;28;20028;-87
2022/03/04 07:30:06;;;;;;;25.42;3.55;;;;;;;;;;5113597;27;20030;-86
2022/03/04 07:32:33;;;;;;;19.50;2.95;;;;;;;;;;5112137;28;20497;-87
2022/03/04 07:34:59;;;;;;;22.40;3.90;;;;;;;;;;5112685;28;20030;-87
2022/03/04 07:37:26;;;;;;;20.88;3.92;;;;;;;;;;5111469;28;20020;-86
2022/03/04 07:39:52;;;;;;;27.45;3.53;;;;;;;;;;5112592;28;20108;-87
2022/03/04 07:42:18;;;;;;;20.30;2.60;;;;;;;;;;5112598;28;20030;-87
2022/03/04 07:44:44;;;;;;;23.98;3.83;;;;;;;;;;5111031;28;20114;-89
2022/03/04 07:47:10;;;;;;;22.92;3.58;;;;;;;;;;5110943;28;20027;-88
2022/03/04 07:49:36;;;;;;;20.35;3.75;;;;;;;;;;5113197;28;20028;-87
2022/03/04 07:52:03;;;;;;;16.25;3.45;;;;;;;;;;5111049;28;20026;-87
2022/03/04 07:54:29;;;;;;;19.02;3.42;;;;;;;;;;5112238;28;20526;-87
2022/03/04 07:56:55;;;;;;;20.80;4.45;;;;;;;;;;5110910;28;20027;-87
2022/03/04 07:59:22;;;;;;;24.60;3.83;;;;;;;;;;5112322;28;20032;-86
2022/03/04 08:01:48;;;;;;;24.80;3.25;;;;;;;;;;5112051;28;20047;-87
2022/03/04 08:04:14;;;;;;;15.48;3.10;;;;;;;;;;5112060;28;20019;-87
2022/03/04 08:06:40;;;;;;;22.42;3.92;;;;;;;;;;5109392;28;20036;-87
2022/03/04 08:09:07;;;;;;;20.83;3.60;;;;;;;;;;5111534;28;20423;-88
2022/03/04 08:11:33;;;;;;;30.63;4.18;;;;;;;;;;5110733;28;20023;-88
2022/03/04 08:13:59;;;;;;;27.05;3.95;;;;;;;;;;5110615;28;20050;-87
2022/03/04 08:16:25;;;;;;;27.67;3.70;;;;;;;;;;5110600;28;20028;-86
2022/03/04 08:18:52;;;;;;;18.38;3.30;;;;;;;;;;5111744;28;20030;-86
2022/03/04 08:21:18;;;;;;;19.20;3.30;;;;;;;;;;5110471;28;20024;-86
2022/03/04 08:23:44;;;;;;;16.13;3.30;;;;;;;;;;5110442;28;20026;-87
2022/03/04 08:26:10;;;;;;;24.30;3.40;;;;;;;;;;5110644;28;20023;-87
2022/03/04 08:28:36;;;;;;;28.48;3.42;;;;;;;;;;5112486;28;20019;-87
2022/03/04 08:31:10;;;;;;;30.10;3.78;;;;;;;;;;5110242;28;20123;-87
2022/03/04 08:33:36;;;;;;;22.40;3.90;;;;;;;;;;5112524;28;20019;-87
2022/03/04 08:36:03;;;;;;;97.60;8.07;;;;;;;;;;5110217;28;20069;-86
2022/03/04 08:38:29;;;;;;;720.35;51.75;;;;;;;;;;5110115;28;20502;-88
2022/03/04 08:40:56;;;;;;;33.60;4.85;;;;;;;;;;5111531;28;20026;-87
2022/03/04 08:43:22;;;;;;;20.40;4.10;;;;;;;;;;5111240;28;20439;-86
2022/03/04 08:45:48;;;;;;;21.60;2.90;;;;;;;;;;5109889;28;20031;-88
2022/03/04 08:48:14;;;;;;;20.38;3.50;;;;;;;;;;5111270;28;20035;-87
2022/03/04 08:50:40;;;;;;;14.25;3.03;;;;;;;;;;5112126;28;20034;-87
2022/03/04 08:53:06;;;;;;;17.15;3.08;;;;;;;;;;5110004;28;20028;-88
2022/03/04 08:55:32;;;;;;;30.83;3.15;;;;;;;;;;5111082;28;20032;-88
2022/03/04 08:58:00;;;;;;;428.92;28.42;;;;;;;;;;5110944;28;20053;-87
2022/03/04 09:00:28;;;;;;;23.10;4.13;;;;;;;;;;5109753;28;20020;-87
2022/03/04 09:02:54;;;;;;;17.55;3.33;;;;;;;;;;5109737;28;20019;-89
2022/03/04 09:05:20;;;;;;;21.00;3.00;;;;;;;;;;5109697;28;20486;-88
2022/03/04 09:07:46;;;;;;;22.02;3.42;;;;;;;;;;5109531;28;20031;-87
2022/03/04 09:10:12;;;;;;;63.05;7.32;;;;;;;;;;5110040;28;20019;-88
2022/03/04 09:12:38;;;;;;;19.85;2.97;;;;;;;;;;5111658;28;20023;-87
2022/03/04 09:15:05;;;;;;;22.80;3.30;;;;;;;;;;5109557;28;20024;-88
2022/03/04 09:17:31;;;;;;;17.42;2.72;;;;;;;;;;5110373;28;20019;-88
2022/03/04 09:19:58;;;;;;;19.05;3.17;;;;;;;;;;5110645;28;20027;-88
2022/03/04 09:22:24;;;;;;;15.15;3.03;;;;;;;;;;5110749;28;20016;-89
2022/03/04 09:24:50;;;;;;;22.65;3.55;;;;;;;;;;5110540;28;20027;-88
2022/03/04 09:27:16;;;;;;;18.98;3.40;;;;;;;;;;5109494;28;20080;-88
2022/03/04 09:29:42;;;;;;;24.95;3.20;;;;;;;;;;5111316;28;20024;-88
2022/03/04 09:32:08;;;;;;;21.50;3.20;;;;;;;;;;5111490;28;20016;-88
2022/03/04 09:34:35;;;;;;;22.60;3.10;;;;;;;;;;5110435;28;20023;-88
2022/03/04 09:37:01;;;;;;;20.00;3.50;;;;;;;;;;5110345;28;20024;-88
2022/03/04 09:39:27;;;;;;;18.50;3.67;;;;;;;;;;5110414;28;20102;-88
2022/03/04 09:41:53;;;;;;;19.92;2.90;;;;;;;;;;5110223;28;20436;-88
2022/03/04 09:44:20;;;;;;;17.38;2.70;;;;;;;;;;5110373;28;20051;-89
2022/03/04 09:46:46;;;;;;;15.52;2.90;;;;;;;;;;5109189;28;20027;-87
2022/03/04 09:49:15;;;;;;;24.58;2.80;;;;;;;;;;5109740;28;20027;-88
2022/03/04 09:51:41;;;;;;;24.15;3.65;;;;;;;;;;5111120;28;20020;-88
2022/03/04 09:54:07;;;;;;;21.77;3.03;;;;;;;;;;5110032;28;20086;-87
2022/03/04 09:56:33;;;;;;;21.02;3.10;;;;;;;;;;5109803;28;20027;-87
2022/03/04 09:58:59;;;;;;;13.02;2.65;;;;;;;;;;5109972;28;20548;-88
2022/03/04 10:01:25;;;;;;;16.95;2.85;;;;;;;;;;5109999;28;20030;-87
2022/03/04 10:03:52;;;;;;;22.50;3.00;;;;;;;;;;5109906;28;20463;-88
2022/03/04 10:06:19;;;;;;;11.80;2.65;;;;;;;;;;5109707;28;20027;-87
2022/03/04 10:08:46;;;;;;;22.17;3.00;;;;;;;;;;5108745;28;20019;-88
2022/03/04 10:11:13;;;;;;;19.63;2.70;;;;;;;;;;5109359;28;20403;-88
2022/03/04 10:13:43;;;;;;;28.67;3.20;;;;;;;;;;5109752;28;20016;-87
2022/03/04 10:16:10;;;;;;;15.88;2.97;;;;;;;;;;5108550;28;20407;-88
2022/03/04 10:18:36;;;;;;;14.05;3.55;;;;;;;;;;5109786;28;20495;-88
2022/03/04 10:21:02;;;;;;;20.90;2.83;;;;;;;;;;5108395;28;20120;-87
2022/03/04 10:23:28;;;;;;;14.95;2.70;;;;;;;;;;5109750;28;20487;-88
2022/03/04 10:25:56;;;;;;;25.52;3.63;;;;;;;;;;5109753;28;20031;-87
2022/03/04 10:28:23;;;;;;;16.00;3.60;;;;;;;;;;5109184;28;20016;-88
2022/03/04 10:30:50;;;;;;;23.80;3.05;;;;;;;;;;5109313;28;20403;-90
2022/03/04 10:33:18;;;;;;;16.00;2.72;;;;;;;;;;5108887;28;20455;-87
2022/03/04 10:35:44;;;;;;;19.70;3.50;;;;;;;;;;5109128;28;20051;-87
2022/03/04 10:38:20;;;;;;;17.73;2.75;;;;;;;;;;5109583;28;20107;-88
2022/03/04 10:40:47;;;;;;;16.60;2.63;;;;;;;;;;5109049;28;20031;-87
2022/03/04 10:43:16;;;;;;;17.73;2.63;;;;;;;;;;5109119;28;20505;-87
2022/03/04 10:45:43;;;;;;;23.38;3.30;;;;;;;;;;5109665;28;20115;-87
2022/03/04 10:48:19;;;;;;;23.05;2.97;;;;;;;;;;5109442;28;20372;-88
2022/03/04 10:50:47;;;;;;;16.15;3.08;;;;;;;;;;5110378;28;20026;-88
2022/03/04 10:53:14;;;;;;;16.63;2.60;;;;;;;;;;5109024;28;20030;-87
2022/03/04 10:55:41;;;;;;;17.25;3.13;;;;;;;;;;5108117;28;20466;-88
2022/03/04 10:58:21;;;;;;;11.75;2.58;;;;;;;;;;5108128;28;20290;-86
2022/03/04 11:00:47;;;;;;;15.85;2.78;;;;;;;;;;5110131;28;20012;-88
2022/03/04 11:03:18;;;;;;;19.98;3.03;;;;;;;;;;5108854;28;20043;-87
2022/03/04 11:05:44;;;;;;;12.35;2.05;;;;;;;;;;5108634;28;20035;-86
2022/03/04 11:08:10;;;;;;;13.07;2.50;;;;;;;;;;5109257;28;20020;-87
2022/03/04 11:10:36;;;;;;;20.75;3.63;;;;;;;;;;5107859;28;20024;-87
2022/03/04 11:13:06;;;;;;;11.25;2.25;;;;;;;;;;5107929;28;20015;-87
2022/03/04 11:15:33;;;;;;;14.43;2.88;;;;;;;;;;5109040;28;20026;-87
2022/03/04 11:18:02;;;;;;;25.52;2.55;;;;;;;;;;5107789;28;20024;-88
2022/03/04 11:20:28;;;;;;;14.70;2.70;;;;;;;;;;5108004;28;20023;-87
2022/03/04 11:22:54;;;;;;;17.75;3.08;;;;;;;;;;5107760;28;20028;-88
2022/03/04 11:25:22;;;;;;;15.80;2.33;;;;;;;;;;5109029;28;20038;-87
2022/03/04 11:27:49;;;;;;;17.65;3.00;;;;;;;;;;5108515;28;20024;-87
2022/03/04 11:30:37;;;;;;;17.92;3.00;;;;;;;;;;5108536;28;20035;-90
2022/03/04 11:33:06;;;;;;;15.30;3.05;;;;;;;;;;5109120;28;20487;-87
2022/03/04 11:35:41;;;;;;;11.80;2.33;;;;;;;;;;5107689;28;20028;-89
2022/03/04 11:38:08;;;;;;;15.20;2.55;;;;;;;;;;5107743;28;20024;-87
2022/03/04 11:40:35;;;;;;;10.65;2.00;;;;;;;;;;5110401;28;20023;-87
2022/03/04 11:43:02;;;;;;;18.05;2.58;;;;;;;;;;5111401;28;20019;-87
2022/03/04 11:45:32;;;;;;;14.05;2.30;;;;;;;;;;5111264;28;20023;-89
2022/03/04 11:48:24;;;;;;;11.52;2.72;;;;;;;;;;5111289;28;20038;-88
2022/03/04 11:50:52;;;;;;;15.65;2.80;;;;;;;;;;5113302;28;20114;-88
2022/03/04 11:53:23;;;;;;;13.32;2.60;;;;;;;;;;5112359;28;20023;-90
2022/03/04 11:56:10;;;;;;;16.17;2.92;;;;;;;;;;5111970;28;20031;-87
2022/03/04 11:58:54;;;;;;;17.27;2.70;;;;;;;;;;5112114;28;20035;-87
2022/03/04 12:01:29;;;;;;;9.50;2.25;;;;;;;;;;5111600;28;20077;-87
2022/03/04 12:04:14;;;;;;;14.18;2.50;;;;;;;;;;5112167;28;20506;-87
2022/03/04 12:06:41;;;;;;;11.65;2.38;;;;;;;;;;5112209;28;20038;-87
2022/03/04 12:09:29;;;;;;;7.88;1.85;;;;;;;;;;5110746;28;20034;-86
2022/03/04 12:12:13;;;;;;;10.32;2.42;;;;;;;;;;5111978;28;20020;-88
2022/03/04 12:14:42;;;;;;;10.98;2.17;;;;;;;;;;5110616;28;20515;-88
2022/03/04 12:17:09;;;;;;;7.28;1.98;;;;;;;;;;5111788;28;20110;-87
2022/03/04 12:19:35;;;;;;;9.88;2.28;;;;;;;;;;5110525;28;20020;-88
2022/03/04 12:22:01;;;;;;;13.20;2.60;;;;;;;;;;5111727;28;20102;-87
2022/03/04 12:24:34;;;;;;;12.00;2.35;;;;;;;;;;5111799;27;20023;-87
2022/03/04 12:27:02;;;;;;;12.18;2.25;;;;;;;;;;5111719;28;20036;-87
2022/03/04 12:29:44;;;;;;;13.05;2.38;;;;;;;;;;5110446;28;20387;-87
2022/03/04 12:32:10;;;;;;;14.75;2.30;;;;;;;;;;5110322;28;20050;-87
2022/03/04 12:34:41;;;;;;;14.60;2.45;;;;;;;;;;5110225;28;20068;-87
2022/03/04 12:37:14;;;;;;;15.57;2.83;;;;;;;;;;5111609;28;20039;-87
2022/03/04 12:39:40;;;;;;;9.07;2.25;;;;;;;;;;5110224;28;20019;-86
2022/03/04 12:42:09;;;;;;;9.85;2.00;;;;;;;;;;5111556;28;20027;-87
2022/03/04 12:44:36;;;;;;;16.27;2.42;;;;;;;;;;5109988;28;20019;-86
2022/03/04 12:47:02;;;;;;;7.35;2.00;;;;;;;;;;5110045;28;20026;-87
2022/03/04 12:49:29;;;;;;;10.88;2.17;;;;;;;;;;5110299;28;20364;-87
2022/03/04 12:51:55;;;;;;;13.15;2.60;;;;;;;;;;5109350;28;20027;-86
2022/03/04 12:54:28;;;;;;;10.38;1.90;;;;;;;;;;5112266;27;20028;-87
2022/03/04 12:56:59;;;;;;;7.65;1.60;;;;;;;;;;5109709;28;20443;-86
2022/03/04 12:59:27;;;;;;;14.57;2.60;;;;;;;;;;5111125;28;20024;-88
2022/03/04 13:01:53;;;;;;;11.00;2.15;;;;;;;;;;5110621;28;20027;-88
2022/03/04 13:04:20;;;;;;;9.35;1.98;;;;;;;;;;5110552;28;20513;-88
2022/03/04 13:06:48;;;;;;;8.25;1.75;;;;;;;;;;5110933;28;20403;-87
2022/03/04 13:09:15;;;;;;;10.10;1.95;;;;;;;;;;5109841;28;20043;-88
2022/03/04 13:11:43;;;;;;;13.13;2.00;;;;;;;;;;5109581;28;20472;-88
2022/03/04 13:14:16;;;;;;;11.13;1.52;;;;;;;;;;5110863;28;20043;-87
2022/03/04 13:16:55;;;;;;;7.55;1.83;;;;;;;;;;5110784;28;20024;-86
2022/03/04 13:19:25;;;;;;;7.80;2.00;;;;;;;;;;5111392;28;20025;-87
2022/03/04 13:21:58;;;;;;;12.07;2.13;;;;;;;;;;5111635;28;20023;-88
2022/03/04 13:24:24;;;;;;;14.02;2.20;;;;;;;;;;5109329;28;20467;-87
2022/03/04 13:26:58;;;;;;;8.27;1.50;;;;;;;;;;5109739;28;20598;-87
2022/03/04 13:29:25;;;;;;;8.80;1.85;;;;;;;;;;5109846;28;20055;-87
2022/03/04 13:31:53;;;;;;;11.35;1.88;;;;;;;;;;5111312;28;20038;-87
2022/03/04 13:34:29;;;;;;;7.30;1.40;;;;;;;;;;5109890;28;20023;-87
2022/03/04 13:36:58;;;;;;;7.50;1.88;;;;;;;;;;5108927;28;20071;-87
2022/03/04 13:39:29;;;;;;;7.05;1.90;;;;;;;;;;5109308;28;20027;-88
2022/03/04 13:42:07;;;;;;;14.55;1.90;;;;;;;;;;5109030;28;20480;-87
2022/03/04 13:44:34;;;;;;;5.28;1.75;;;;;;;;;;5110103;28;20023;-87
2022/03/04 13:47:00;;;;;;;15.57;2.10;;;;;;;;;;5108856;28;20168;-87
2022/03/04 13:49:41;;;;;;;5.82;1.55;;;;;;;;;;5108772;28;20024;-87
2022/03/04 13:52:07;;;;;;;11.50;1.80;;;;;;;;;;5108927;28;20024;-86
2022/03/04 13:54:50;;;;;;;6.80;1.60;;;;;;;;;;5110222;28;20170;-90
2022/03/04 13:57:36;;;;;;;8.80;1.73;;;;;;;;;;5109938;28;20092;-85
2022/03/04 14:00:11;;;;;;;6.25;1.83;;;;;;;;;;5108608;28;20024;-87
2022/03/04 14:02:44;;;;;;;7.10;1.77;;;;;;;;;;5110066;28;20023;-87
2022/03/04 14:05:11;;;;;;;10.00;2.10;;;;;;;;;;5107686;28;20508;-88
2022/03/04 14:07:41;;;;;;;8.23;1.97;;;;;;;;;;5109966;28;20055;-87
2022/03/04 14:10:15;;;;;;;9.27;2.03;;;;;;;;;;5109870;28;20042;-86
2022/03/04 14:12:42;;;;;;;10.70;1.70;;;;;;;;;;5109803;28;20072;-87
2022/03/04 14:15:08;;;;;;;9.50;1.92;;;;;;;;;;5109712;28;20526;-86
2022/03/04 14:17:49;;;;;;;9.20;2.00;;;;;;;;;;5109730;28;20023;-88
2022/03/04 14:20:15;;;;;;;8.65;2.10;;;;;;;;;;5108470;28;20030;-88
2022/03/04 14:22:41;;;;;;;5.53;1.80;;;;;;;;;;5109723;28;20030;-86
2022/03/04 14:25:08;;;;;;;4.32;1.67;;;;;;;;;;5109607;28;20038;-87
2022/03/04 14:27:34;;;;;;;11.45;2.10;;;;;;;;;;5108280;28;20034;-87
2022/03/04 14:30:00;;;;;;;11.13;2.03;;;;;;;;;;5109551;28;20024;-87
2022/03/04 14:32:27;;;;;;;9.75;2.13;;;;;;;;;;5110459;28;20427;-86